createdAt,value
2019-04-21T00:00:00.338Z,102475.34
2019-04-21T00:02:35.971Z,102476.27
2019-04-21T00:05:25.931Z,102480.69
2019-04-21T00:07:52.758Z,102474.23
2019-04-21T00:10:30.155Z,102478.90
2019-04-21T00:12:52.257Z,102478.80
2019-04-21T00:15:19.392Z,102472.20
2019-04-21T00:17:43.623Z,102471.00
2019-04-21T00:20:26.108Z,102468.16
2019-04-21T00:22:58.797Z,102465.80
2019-04-21T00:25:32.184Z,102465.03
2019-04-21T00:28:09.733Z,102457.81
2019-04-21T00:30:42.826Z,102459.38
2019-04-21T00:32:59.720Z,102454.78
2019-04-21T00:35:25.857Z,102448.62
2019-04-21T00:38:13.634Z,102448.35
2019-04-21T00:40:47.918Z,102444.30
2019-04-21T00:43:07.815Z,102442.72
2019-04-21T00:45:42.233Z,102434.18
2019-04-21T00:48:23.615Z,102436.04
2019-04-21T00:51:14.529Z,102431.17
2019-04-21T00:53:35.706Z,102425.20
2019-04-21T00:56:03.316Z,102425.91
2019-04-21T00:58:33.334Z,102417.21
2019-04-21T01:01:02.232Z,102417.52
2019-04-21T01:03:32.710Z,102417.03
2019-04-21T01:06:05.327Z,102417.99
2019-04-21T01:08:31.298Z,102408.45
2019-04-21T01:11:09.470Z,102401.06
2019-04-21T01:13:41.266Z,102396.41
2019-04-21T01:16:07.149Z,102395.81
2019-04-21T01:18:38.054Z,102383.86
2019-04-21T01:20:49.213Z,102379.67
2019-04-21T01:23:19.219Z,102384.80
2019-04-21T01:26:00.682Z,102386.19
2019-04-21T01:28:35.933Z,102380.53
2019-04-21T01:31:09.387Z,102379.22
2019-04-21T01:33:44.363Z,102376.50
2019-04-21T01:36:16.863Z,102371.23
2019-04-21T01:38:48.159Z,102366.59
2019-04-21T01:41:20.991Z,102365.42
2019-04-21T01:43:45.746Z,102359.45
2019-04-21T01:46:15.264Z,102360.80
2019-04-21T01:48:45.882Z,102358.69
2019-04-21T01:51:18.723Z,102362.36
2019-04-21T01:53:55.069Z,102360.14
2019-04-21T01:56:24.153Z,102358.20
2019-04-21T01:58:48.234Z,102352.45
2019-04-21T02:01:33.365Z,102348.39
2019-04-21T02:04:02.755Z,102350.61
2019-04-21T02:06:36.262Z,102343.39
2019-04-21T02:09:05.215Z,102350.42
2019-04-21T02:11:35.405Z,102340.98
2019-04-21T02:14:09.964Z,102338.61
2019-04-21T02:16:40.413Z,102339.16
2019-04-21T02:19:04.796Z,102333.84
2019-04-21T02:21:35.972Z,102335.73
2019-04-21T02:24:35.159Z,102333.20
2019-04-21T02:26:41.489Z,102332.09
2019-04-21T02:29:15.526Z,102326.02
2019-04-21T02:31:57.510Z,102323.12
2019-04-21T02:34:23.758Z,102320.15
2019-04-21T02:37:11.621Z,102316.28
2019-04-21T02:39:35.431Z,102317.22
2019-04-21T02:42:11.570Z,102311.59
2019-04-21T02:44:37.500Z,102313.42
2019-04-21T02:46:55.117Z,102304.97
2019-04-21T02:52:15.477Z,102305.75
2019-04-21T02:59:59.970Z,102291.80
2019-04-21T03:02:34.963Z,102296.77
2019-04-21T03:07:50.426Z,102287.67
2019-04-21T03:10:20.558Z,102285.72
2019-04-21T03:12:48.225Z,102288.17
2019-04-21T03:15:23.484Z,102282.87
2019-04-21T03:20:23.460Z,102271.69
2019-04-21T03:22:58.147Z,102264.58
2019-04-21T03:25:33.789Z,102263.03
2019-04-21T03:30:53.110Z,102259.80
2019-04-21T03:35:57.884Z,102255.28
2019-04-21T03:40:28.607Z,102238.19
2019-04-21T03:43:10.150Z,102240.96
2019-04-21T03:45:40.569Z,102243.15
2019-04-21T03:48:13.663Z,102241.19
2019-04-21T03:53:09.291Z,102241.34
2019-04-21T03:58:24.451Z,102240.55
2019-04-21T04:01:04.120Z,102243.09
2019-04-21T04:06:27.963Z,102239.66
2019-04-21T04:11:33.720Z,102235.95
2019-04-21T04:19:06.146Z,102230.13
2019-04-21T04:24:13.746Z,102223.08
2019-04-21T04:26:31.623Z,102222.56
2019-04-21T04:29:08.879Z,102217.75
2019-04-21T04:31:39.955Z,102216.14
2019-04-21T04:34:09.865Z,102214.61
2019-04-21T04:36:47.966Z,102210.89
2019-04-21T04:39:25.788Z,102207.75
2019-04-21T04:49:39.680Z,102195.77
2019-04-21T04:54:40.927Z,102196.58
2019-04-21T04:57:08.390Z,102196.02
2019-04-21T05:02:14.944Z,102199.27
2019-04-21T05:07:06.382Z,102193.55
2019-04-21T05:09:39.611Z,102192.84
2019-04-21T05:12:05.982Z,102201.08
2019-04-21T05:14:40.463Z,102201.09
2019-04-21T05:17:19.667Z,102195.91
2019-04-21T05:22:17.305Z,102194.80
2019-04-21T05:24:35.545Z,102203.11
2019-04-21T05:27:05.014Z,102199.98
2019-04-21T05:29:49.244Z,102202.41
2019-04-21T05:32:17.154Z,102195.88
2019-04-21T05:35:00.213Z,102197.48
2019-04-21T05:37:29.325Z,102209.95
2019-04-21T05:40:00.662Z,102206.34
2019-04-21T05:42:28.876Z,102217.70
2019-04-21T05:45:25.436Z,102211.91
2019-04-21T05:47:52.679Z,102211.61
2019-04-21T05:50:11.530Z,102210.69
2019-04-21T05:52:45.958Z,102207.67
2019-04-21T05:55:33.473Z,102207.84
2019-04-21T05:57:57.321Z,102214.84
2019-04-21T06:03:06.992Z,102216.59
2019-04-21T06:05:43.607Z,102217.69
2019-04-21T06:08:09.877Z,102210.45
2019-04-21T06:10:41.946Z,102210.16
2019-04-21T06:13:12.930Z,102210.02
2019-04-21T06:15:44.596Z,102214.61
2019-04-21T06:18:11.705Z,102209.27
2019-04-21T06:20:40.571Z,102213.00
2019-04-21T06:23:12.020Z,102209.81
2019-04-21T06:26:25.629Z,102200.97
2019-04-21T06:28:17.886Z,102196.92
2019-04-21T06:30:57.280Z,102193.23
2019-04-21T06:33:21.400Z,102199.42
2019-04-21T06:36:20.887Z,102197.90
2019-04-21T06:38:54.403Z,102199.46
2019-04-21T06:41:13.526Z,102201.69
2019-04-21T06:43:48.552Z,102202.81
2019-04-21T06:46:21.094Z,102192.57
2019-04-21T06:48:49.541Z,102203.47
2019-04-21T06:51:22.456Z,102203.34
2019-04-21T06:53:55.998Z,102200.36
2019-04-21T06:56:21.811Z,102201.56
2019-04-21T06:58:51.833Z,102198.91
2019-04-21T07:01:25.987Z,102202.97
2019-04-21T07:04:01.671Z,102203.95
2019-04-21T07:06:32.416Z,102207.39
2019-04-21T07:09:02.930Z,102204.08
2019-04-21T07:11:28.744Z,102197.59
2019-04-21T07:14:14.827Z,102199.14
2019-04-21T07:16:31.902Z,102197.47
2019-04-21T07:19:05.900Z,102190.92
2019-04-21T07:21:34.072Z,102190.94
2019-04-21T07:24:05.754Z,102188.98
2019-04-21T07:26:36.733Z,102190.63
2019-04-21T07:29:12.898Z,102190.43
2019-04-21T07:31:40.405Z,102184.61
2019-04-21T07:34:14.284Z,102181.98
2019-04-21T07:36:48.123Z,102179.84
2019-04-21T07:39:06.189Z,102182.69
2019-04-21T07:41:42.520Z,102186.45
2019-04-21T07:44:04.911Z,102186.06
2019-04-21T07:46:36.606Z,102182.35
2019-04-21T07:49:12.470Z,102187.75
2019-04-21T07:51:57.625Z,102179.86
2019-04-21T07:54:32.097Z,102177.23
2019-04-21T07:56:44.196Z,102185.59
2019-04-21T07:59:37.108Z,102181.55
2019-04-21T08:02:02.373Z,102178.08
2019-04-21T08:06:56.686Z,102174.06
2019-04-21T08:09:37.136Z,102170.81
2019-04-21T08:12:00.125Z,102168.56
2019-04-21T08:14:39.523Z,102167.55
2019-04-21T08:17:03.151Z,102163.30
2019-04-21T08:19:35.223Z,102156.16
2019-04-21T08:22:11.032Z,102154.06
2019-04-21T08:24:46.893Z,102155.14
2019-04-21T08:27:10.956Z,102155.97
2019-04-21T08:32:14.483Z,102154.05
2019-04-21T08:34:55.109Z,102152.29
2019-04-21T08:37:15.050Z,102156.39
2019-04-21T08:39:58.126Z,102156.66
2019-04-21T08:42:18.200Z,102152.94
2019-04-21T08:44:52.716Z,102154.97
2019-04-21T08:47:20.325Z,102154.70
2019-04-21T08:49:47.629Z,102150.70
2019-04-21T08:52:39.399Z,102148.70
2019-04-21T08:54:55.716Z,102144.72
2019-04-21T08:57:34.874Z,102140.98
2019-04-21T09:00:13.977Z,102136.39
2019-04-21T09:02:40.295Z,102133.53
2019-04-21T09:05:11.414Z,102129.55
2019-04-21T09:07:49.559Z,102129.97
2019-04-21T09:10:09.281Z,102128.28
2019-04-21T09:12:41.778Z,102125.98
2019-04-21T09:15:14.083Z,102115.78
2019-04-21T09:17:41.401Z,102116.36
2019-04-21T09:20:26.459Z,102112.44
2019-04-21T09:22:50.076Z,102116.28
2019-04-21T09:25:30.902Z,102117.77
2019-04-21T09:27:53.685Z,102122.61
2019-04-21T09:30:06.899Z,102124.05
2019-04-21T09:32:38.529Z,102127.52
2019-04-21T09:35:12.458Z,102119.64
2019-04-21T09:37:47.315Z,102117.45
2019-04-21T09:40:13.168Z,102117.45
2019-04-21T09:42:50.295Z,102122.19
2019-04-21T09:45:14.316Z,102113.49
2019-04-21T09:47:52.548Z,102105.66
2019-04-21T09:50:15.240Z,102103.12
2019-04-21T09:52:49.752Z,102091.21
2019-04-21T09:55:20.677Z,102098.23
2019-04-21T09:57:53.550Z,102106.27
2019-04-21T10:00:24.790Z,102096.38
2019-04-21T10:02:58.628Z,102090.09
2019-04-21T10:05:22.984Z,102087.44
2019-04-21T10:07:55.141Z,102082.38
2019-04-21T10:10:25.529Z,102075.84
2019-04-21T10:12:56.215Z,102068.22
2019-04-21T10:15:27.857Z,102065.20
2019-04-21T10:17:58.438Z,102062.23
2019-04-21T10:20:28.536Z,102061.05
2019-04-21T10:22:57.956Z,102061.05
2019-04-21T10:25:28.382Z,102057.80
2019-04-21T10:27:58.966Z,102051.51
2019-04-21T10:30:28.775Z,102053.39
2019-04-21T10:32:58.539Z,102050.92
2019-04-21T10:35:28.903Z,102044.30
2019-04-21T10:38:10.996Z,102040.08
2019-04-21T10:40:32.637Z,102033.19
2019-04-21T10:43:01.610Z,102028.70
2019-04-21T10:45:32.825Z,102017.88
2019-04-21T10:48:03.028Z,102021.45
2019-04-21T10:50:34.705Z,102019.03
2019-04-21T10:53:13.382Z,102017.38
2019-04-21T10:55:57.899Z,102007.20
2019-04-21T10:58:20.375Z,102003.94
2019-04-21T11:01:08.646Z,102001.28
2019-04-21T11:03:42.755Z,101992.74
2019-04-21T11:06:14.746Z,101993.16
2019-04-21T11:08:48.572Z,101981.16
2019-04-21T11:11:16.228Z,101986.99
2019-04-21T11:13:46.390Z,101983.86
2019-04-21T11:16:17.139Z,101979.36
2019-04-21T11:18:48.151Z,101982.25
2019-04-21T11:21:18.805Z,101985.20
2019-04-21T11:23:48.198Z,101978.64
2019-04-21T11:26:19.886Z,101972.08
2019-04-21T11:28:56.871Z,101966.77
2019-04-21T11:31:27.181Z,101965.27
2019-04-21T11:33:57.547Z,101964.73
2019-04-21T11:36:27.231Z,101957.20
2019-04-21T11:39:16.611Z,101960.88
2019-04-21T11:41:34.101Z,101947.34
2019-04-21T11:44:05.005Z,101953.73
2019-04-21T11:46:34.471Z,101957.50
2019-04-21T11:49:04.138Z,101948.03
2019-04-21T11:51:33.551Z,101942.39
2019-04-21T11:54:04.528Z,101947.68
2019-04-21T11:56:34.805Z,101934.01
2019-04-21T11:59:05.778Z,101939.53
2019-04-21T12:01:35.952Z,101930.78
2019-04-21T12:04:07.602Z,101932.70
2019-04-21T12:06:43.478Z,101929.77
2019-04-21T12:09:10.103Z,101923.93
2019-04-21T12:11:41.121Z,101913.38
2019-04-21T12:14:10.593Z,101911.18
2019-04-21T12:16:41.398Z,101915.67
2019-04-21T12:19:10.712Z,101907.90
2019-04-21T12:21:54.685Z,101906.04
2019-04-21T12:24:13.162Z,101901.84
2019-04-21T12:26:42.617Z,101894.20
2019-04-21T12:29:11.953Z,101890.92
2019-04-21T12:31:59.505Z,101883.44
2019-04-21T12:34:30.224Z,101886.31
2019-04-21T12:37:01.079Z,101870.37
2019-04-21T12:39:32.729Z,101868.13
2019-04-21T12:42:02.670Z,101865.59
2019-04-21T12:44:32.095Z,101860.46
2019-04-21T12:47:01.722Z,101854.63
2019-04-21T12:49:31.835Z,101846.92
2019-04-21T12:52:01.880Z,101846.14
2019-04-21T12:54:33.365Z,101836.94
2019-04-21T12:57:03.456Z,101832.72
2019-04-21T12:59:34.501Z,101822.50
2019-04-21T13:02:04.147Z,101827.91
2019-04-21T13:04:33.650Z,101824.84
2019-04-21T13:07:05.573Z,101825.03
2019-04-21T13:09:36.102Z,101816.47
2019-04-21T13:12:06.929Z,101812.48
2019-04-21T13:14:37.801Z,101808.27
2019-04-21T13:17:09.775Z,101800.36
2019-04-21T13:19:39.502Z,101793.99
2019-04-21T13:22:09.977Z,101786.00
2019-04-21T13:24:39.948Z,101782.58
2019-04-21T13:27:12.376Z,101773.86
2019-04-21T13:29:41.948Z,101774.33
2019-04-21T13:32:12.592Z,101774.66
2019-04-21T13:34:42.194Z,101770.77
2019-04-21T13:37:12.559Z,101769.08
2019-04-21T13:40:11.097Z,101769.20
2019-04-21T13:42:34.207Z,101768.31
2019-04-21T13:44:57.820Z,101755.06
2019-04-21T13:47:28.272Z,101755.63
2019-04-21T13:49:59.893Z,101751.67
2019-04-21T13:52:29.023Z,101739.02
2019-04-21T13:54:58.385Z,101734.16
2019-04-21T13:57:28.505Z,101734.16
2019-04-21T13:59:59.236Z,101727.23
2019-04-21T14:02:30.905Z,101729.27
2019-04-21T14:05:01.756Z,101731.19
2019-04-21T14:07:32.164Z,101726.02
2019-04-21T14:10:06.302Z,101728.09
2019-04-21T14:12:32.702Z,101723.52
2019-04-21T14:15:02.293Z,101719.62
2019-04-21T14:17:34.980Z,101714.16
2019-04-21T14:20:09.031Z,101705.44
2019-04-21T14:22:38.416Z,101700.88
2019-04-21T14:25:08.239Z,101699.34
2019-04-21T14:27:38.555Z,101695.01
2019-04-21T14:30:10.381Z,101688.05
2019-04-21T14:32:40.467Z,101689.76
2019-04-21T14:35:10.941Z,101678.82
2019-04-21T14:37:42.467Z,101681.95
2019-04-21T14:40:17.347Z,101677.36
2019-04-21T14:42:44.433Z,101663.44
2019-04-21T14:45:16.825Z,101668.91
2019-04-21T14:47:48.250Z,101661.05
2019-04-21T14:50:36.591Z,101654.97
2019-04-21T14:53:11.849Z,101661.63
2019-04-21T14:55:45.473Z,101657.38
2019-04-21T14:58:15.358Z,101654.89
2019-04-21T15:00:55.592Z,101651.77
2019-04-21T15:03:25.822Z,101651.41
2019-04-21T15:05:55.708Z,101645.90
2019-04-21T15:08:25.230Z,101646.14
2019-04-21T15:10:54.920Z,101646.58
2019-04-21T15:13:25.809Z,101635.78
2019-04-21T15:15:56.287Z,101637.02
2019-04-21T15:18:26.871Z,101629.29
2019-04-21T15:20:57.461Z,101632.66
2019-04-21T15:23:28.663Z,101621.98
2019-04-21T15:25:58.010Z,101621.22
2019-04-21T15:28:31.669Z,101621.84
2019-04-21T15:30:58.678Z,101619.17
2019-04-21T15:33:29.125Z,101611.56
2019-04-21T15:35:58.450Z,101609.02
2019-04-21T15:38:27.758Z,101611.06
2019-04-21T15:41:02.293Z,101605.31
2019-04-21T15:43:28.643Z,101600.64
2019-04-21T15:45:58.080Z,101597.37
2019-04-21T15:48:28.802Z,101594.83
2019-04-21T15:50:58.866Z,101591.94
2019-04-21T15:53:31.947Z,101598.34
2019-04-21T15:56:04.631Z,101588.16
2019-04-21T15:58:52.706Z,101577.58
2019-04-21T16:01:36.600Z,101589.33
2019-04-21T16:04:07.851Z,101582.22
2019-04-21T16:06:37.876Z,101586.22
2019-04-21T16:09:16.168Z,101575.04
2019-04-21T16:11:40.245Z,101573.42
2019-04-21T16:14:10.182Z,101561.77
2019-04-21T16:16:41.035Z,101566.98
2019-04-21T16:19:12.157Z,101561.31
2019-04-21T16:21:45.937Z,101558.32
2019-04-21T16:24:14.271Z,101554.08
2019-04-21T16:26:44.635Z,101557.20
2019-04-21T16:29:15.481Z,101551.92
2019-04-21T16:31:47.006Z,101552.70
2019-04-21T16:34:17.881Z,101541.46
2019-04-21T16:36:49.759Z,101539.84
2019-04-21T16:39:19.715Z,101532.64
2019-04-21T16:41:50.029Z,101531.42
2019-04-21T16:44:20.907Z,101530.82
2019-04-21T16:46:51.688Z,101529.63
2019-04-21T16:49:22.242Z,101523.73
2019-04-21T16:51:53.950Z,101521.60
2019-04-21T16:54:26.239Z,101517.07
2019-04-21T16:57:03.819Z,101515.91
2019-04-21T16:59:35.012Z,101514.42
2019-04-21T17:02:04.886Z,101506.97
2019-04-21T17:04:34.310Z,101513.84
2019-04-21T17:07:05.070Z,101505.72
2019-04-21T17:09:34.834Z,101501.49
2019-04-21T17:12:09.701Z,101500.11
2019-04-21T17:14:53.668Z,101495.96
2019-04-21T17:17:32.337Z,101494.78
2019-04-21T17:19:45.554Z,101491.63
2019-04-21T17:22:13.482Z,101488.13
2019-04-21T17:24:44.362Z,101482.23
2019-04-21T17:27:15.276Z,101478.19
2019-04-21T17:29:46.236Z,101475.30
2019-04-21T17:32:16.438Z,101470.27
2019-04-21T17:34:45.929Z,101476.44
2019-04-21T17:37:15.354Z,101476.25
2019-04-21T17:39:45.004Z,101476.43
2019-04-21T17:42:26.444Z,101475.16
2019-04-21T17:44:45.633Z,101473.30
2019-04-21T17:47:25.330Z,101464.27
2019-04-21T17:49:50.815Z,101464.36
2019-04-21T17:52:38.843Z,101460.98
2019-04-21T17:55:16.833Z,101454.78
2019-04-21T17:57:57.103Z,101447.39
2019-04-21T18:00:49.460Z,101453.25
2019-04-21T18:03:01.781Z,101447.45
2019-04-21T18:05:31.932Z,101451.86
2019-04-21T18:08:00.082Z,101443.70
2019-04-21T18:10:30.688Z,101445.05
2019-04-21T18:12:57.922Z,101453.86
2019-04-21T18:15:37.169Z,101450.70
2019-04-21T18:17:50.595Z,101440.95
2019-04-21T18:20:25.783Z,101451.89
2019-04-21T18:23:07.470Z,101445.75
2019-04-21T18:25:48.572Z,101450.13
2019-04-21T18:28:08.763Z,101445.20
2019-04-21T18:30:48.735Z,101439.76
2019-04-21T18:33:26.612Z,101435.77
2019-04-21T18:35:56.291Z,101441.66
2019-04-21T18:38:51.835Z,101442.02
2019-04-21T18:41:01.466Z,101439.83
2019-04-21T18:44:08.064Z,101438.31
2019-04-21T18:46:27.017Z,101438.13
2019-04-21T18:48:50.849Z,101441.99
2019-04-21T18:51:34.642Z,101440.31
2019-04-21T18:54:24.151Z,101438.91
2019-04-21T18:56:29.689Z,101444.20
2019-04-21T18:59:00.603Z,101449.14
2019-04-21T19:01:34.402Z,101444.70
2019-04-21T19:04:05.383Z,101445.43
2019-04-21T19:06:46.857Z,101443.06
2019-04-21T19:09:26.655Z,101441.02
2019-04-21T19:12:00.840Z,101446.16
2019-04-21T19:14:31.971Z,101450.94
2019-04-21T19:17:29.232Z,101448.37
2019-04-21T19:19:44.469Z,101442.42
2019-04-21T19:22:06.258Z,101438.95
2019-04-21T19:24:52.385Z,101449.00
2019-04-21T19:27:12.080Z,101444.33
2019-04-21T19:29:45.216Z,101439.33
2019-04-21T19:32:14.918Z,101443.20
2019-04-21T19:34:29.347Z,101440.03
2019-04-21T19:37:00.687Z,101438.27
2019-04-21T19:39:39.404Z,101434.78
2019-04-21T19:42:08.621Z,101440.22
2019-04-21T19:44:47.128Z,101435.30
2019-04-21T19:47:26.257Z,101434.23
2019-04-21T19:49:55.421Z,101435.98
2019-04-21T19:52:11.615Z,101433.99
2019-04-21T19:54:39.739Z,101437.02
2019-04-21T19:57:07.092Z,101439.20
2019-04-21T19:59:44.713Z,101438.14
2019-04-21T20:02:09.001Z,101435.19
2019-04-21T20:04:47.926Z,101433.22
2019-04-21T20:07:30.728Z,101432.53
2019-04-21T20:10:02.383Z,101427.81
2019-04-21T20:12:36.599Z,101430.59
2019-04-21T20:15:08.437Z,101430.14
2019-04-21T20:17:33.587Z,101426.95
2019-04-21T20:19:46.017Z,101426.90
2019-04-21T20:22:16.757Z,101427.60
2019-04-21T20:24:53.948Z,101430.78
2019-04-21T20:27:31.134Z,101422.31
2019-04-21T20:30:08.069Z,101421.91
2019-04-21T20:32:38.206Z,101419.58
2019-04-21T20:35:34.691Z,101421.77
2019-04-21T20:37:37.582Z,101418.80
2019-04-21T20:39:59.845Z,101412.11
2019-04-21T20:42:40.287Z,101412.54
2019-04-21T20:45:28.918Z,101414.60
2019-04-21T20:47:36.711Z,101411.72
2019-04-21T20:50:12.338Z,101410.87
2019-04-21T20:52:47.890Z,101410.94
2019-04-21T20:55:10.651Z,101407.74
2019-04-21T20:57:49.372Z,101406.45
2019-04-21T21:00:21.757Z,101404.86
2019-04-21T21:02:52.099Z,101408.94
2019-04-21T21:05:24.697Z,101399.60
2019-04-21T21:07:57.036Z,101399.60
2019-04-21T21:10:26.110Z,101399.69
2019-04-21T21:13:08.816Z,101403.08
2019-04-21T21:15:29.142Z,101396.61
2019-04-21T21:18:13.919Z,101396.48
2019-04-21T21:20:35.663Z,101395.98
2019-04-21T21:23:05.749Z,101387.33
2019-04-21T21:25:44.708Z,101390.33
2019-04-21T21:28:04.372Z,101384.60
2019-04-21T21:30:41.741Z,101385.34
2019-04-21T21:33:15.251Z,101388.15
2019-04-21T21:35:37.971Z,101385.03
2019-04-21T21:38:13.117Z,101386.91
2019-04-21T21:40:45.487Z,101379.03
2019-04-21T21:43:09.242Z,101377.02
2019-04-21T21:45:41.091Z,101379.00
2019-04-21T21:48:21.703Z,101371.81
2019-04-21T21:50:45.969Z,101368.46
2019-04-21T21:53:13.584Z,101366.18
2019-04-21T21:55:38.584Z,101366.80
2019-04-21T21:58:09.987Z,101361.07
2019-04-21T22:00:43.145Z,101362.98
2019-04-21T22:03:19.649Z,101359.05
2019-04-21T22:05:50.406Z,101361.52
2019-04-21T22:08:16.374Z,101352.41
2019-04-21T22:10:45.687Z,101355.88
2019-04-21T22:13:19.809Z,101349.38
2019-04-21T22:15:48.283Z,101348.03
2019-04-21T22:18:36.174Z,101350.83
2019-04-21T22:21:04.962Z,101351.55
2019-04-21T22:23:34.002Z,101347.28
2019-04-21T22:25:51.437Z,101345.52
2019-04-21T22:28:22.188Z,101345.13
2019-04-21T22:30:53.375Z,101339.95
2019-04-21T22:33:23.326Z,101341.16
2019-04-21T22:36:02.062Z,101347.98
2019-04-21T22:38:42.135Z,101339.88
2019-04-21T22:41:10.103Z,101339.90
2019-04-21T22:43:34.580Z,101332.80
2019-04-21T22:45:59.331Z,101332.80
2019-04-21T22:48:29.473Z,101335.59
2019-04-21T22:51:00.606Z,101330.59
2019-04-21T22:53:36.012Z,101328.16
2019-04-21T22:56:11.986Z,101325.92
2019-04-21T22:58:37.338Z,101318.94
2019-04-21T23:01:05.579Z,101311.03
2019-04-21T23:03:35.749Z,101316.60
2019-04-21T23:06:13.567Z,101308.91
2019-04-21T23:08:40.493Z,101309.82
2019-04-21T23:11:11.898Z,101308.69
2019-04-21T23:13:38.706Z,101305.73
2019-04-21T23:16:09.870Z,101309.30
2019-04-21T23:18:54.458Z,101309.09
2019-04-21T23:21:25.838Z,101310.19
2019-04-21T23:24:01.769Z,101307.13
2019-04-21T23:26:33.120Z,101306.30
2019-04-21T23:29:10.385Z,101308.95
2019-04-21T23:31:34.153Z,101302.86
2019-04-21T23:33:48.416Z,101291.33
2019-04-21T23:36:24.166Z,101296.09
2019-04-21T23:38:51.988Z,101290.70
2019-04-21T23:41:21.490Z,101287.50
2019-04-21T23:43:59.183Z,101285.56
2019-04-21T23:46:26.741Z,101276.63
2019-04-21T23:49:07.489Z,101282.95
2019-04-21T23:51:36.640Z,101283.19
2019-04-21T23:53:55.449Z,101276.73
2019-04-21T23:56:30.064Z,101269.17
2019-04-21T23:59:02.622Z,101263.59
